sensor_id;sensor_type;location;lat;lon;timestamp;pressure;altitude;pressure_sealevel;temperature;humidity
47366;BME280;33105;47.964;7.982;2023-04-21T00:00:30;96248.91;;;1.80;88.96
47366;BME280;33105;47.964;7.982;2023-04-21T00:03:31;96242.81;;;1.66;89.04
47366;BME280;33105;47.964;7.982;2023-04-21T00:06:33;96240.34;;;1.64;91.02
47366;BME280;33105;47.964;7.982;2023-04-21T00:09:34;96238.09;;;1.61;89.43
47366;BME280;33105;47.964;7.982;2023-04-21T00:12:36;96233.13;;;2.08;89.07
47366;BME280;33105;47.964;7.982;2023-04-21T00:15:37;96235.53;;;1.98;88.43
47366;BME280;33105;47.964;7.982;2023-04-21T00:18:38;96235.22;;;1.81;89.33
47366;BME280;33105;47.964;7.982;2023-04-21T00:21:39;96224.50;;;1.75;89.58
47366;BME280;33105;47.964;7.982;2023-04-21T00:24:40;96219.63;;;1.65;89.82
47366;BME280;33105;47.964;7.982;2023-04-21T00:27:42;96219.25;;;1.61;89.88
47366;BME280;33105;47.964;7.982;2023-04-21T00:30:43;96218.84;;;1.58;90.23
47366;BME280;33105;47.964;7.982;2023-04-21T00:33:44;96223.41;;;1.57;91.43
47366;BME280;33105;47.964;7.982;2023-04-21T00:36:45;96218.81;;;1.64;90.89
47366;BME280;33105;47.964;7.982;2023-04-21T00:39:46;96226.50;;;1.86;89.99
47366;BME280;33105;47.964;7.982;2023-04-21T00:42:48;96223.75;;;1.67;90.59
47366;BME280;33105;47.964;7.982;2023-04-21T00:45:49;96222.84;;;1.74;90.05
47366;BME280;33105;47.964;7.982;2023-04-21T00:48:51;96218.69;;;1.78;89.71
47366;BME280;33105;47.964;7.982;2023-04-21T00:51:53;96215.91;;;1.66;90.54
47366;BME280;33105;47.964;7.982;2023-04-21T00:54:56;96213.63;;;1.63;90.73
47366;BME280;33105;47.964;7.982;2023-04-21T00:57:57;96219.81;;;1.70;90.92
47366;BME280;33105;47.964;7.982;2023-04-21T01:01:02;96215.28;;;1.89;90.50
47366;BME280;33105;47.964;7.982;2023-04-21T01:04:05;96216.38;;;1.81;89.74
47366;BME280;33105;47.964;7.982;2023-04-21T01:07:06;96214.63;;;1.68;89.62
47366;BME280;33105;47.964;7.982;2023-04-21T01:10:10;96218.84;;;1.58;90.25
47366;BME280;33105;47.964;7.982;2023-04-21T01:13:11;96214.56;;;1.50;90.90
47366;BME280;33105;47.964;7.982;2023-04-21T01:16:18;96215.44;;;1.44;90.99
47366;BME280;33105;47.964;7.982;2023-04-21T01:19:20;96210.69;;;1.46;90.67
47366;BME280;33105;47.964;7.982;2023-04-21T01:22:22;96208.19;;;1.45;91.09
47366;BME280;33105;47.964;7.982;2023-04-21T01:25:25;96215.28;;;1.39;90.42
47366;BME280;33105;47.964;7.982;2023-04-21T01:28:28;96209.25;;;1.44;90.81
47366;BME280;33105;47.964;7.982;2023-04-21T01:31:29;96207.84;;;1.34;91.16
47366;BME280;33105;47.964;7.982;2023-04-21T01:34:30;96215.00;;;1.47;91.17
47366;BME280;33105;47.964;7.982;2023-04-21T01:37:32;96215.16;;;1.52;90.64
47366;BME280;33105;47.964;7.982;2023-04-21T01:40:34;96215.56;;;1.56;90.35
47366;BME280;33105;47.964;7.982;2023-04-21T01:43:36;96216.88;;;1.47;90.81
47366;BME280;33105;47.964;7.982;2023-04-21T01:46:37;96213.78;;;1.43;90.81
47366;BME280;33105;47.964;7.982;2023-04-21T01:49:38;96212.97;;;1.43;91.11
47366;BME280;33105;47.964;7.982;2023-04-21T01:52:40;96220.41;;;1.47;90.79
47366;BME280;33105;47.964;7.982;2023-04-21T01:55:42;96211.53;;;1.40;90.84
47366;BME280;33105;47.964;7.982;2023-04-21T01:58:44;96222.09;;;1.42;91.05
47366;BME280;33105;47.964;7.982;2023-04-21T02:01:45;96213.16;;;1.48;90.71
47366;BME280;33105;47.964;7.982;2023-04-21T02:04:46;96224.00;;;1.34;89.29
47366;BME280;33105;47.964;7.982;2023-04-21T02:07:47;96216.13;;;1.33;88.99
47366;BME280;33105;47.964;7.982;2023-04-21T02:10:48;96214.63;;;1.12;90.15
47366;BME280;33105;47.964;7.982;2023-04-21T02:13:53;96221.25;;;1.10;91.27
47366;BME280;33105;47.964;7.982;2023-04-21T02:16:55;96222.66;;;1.19;91.27
47366;BME280;33105;47.964;7.982;2023-04-21T02:19:56;96221.13;;;1.29;91.53
47366;BME280;33105;47.964;7.982;2023-04-21T02:22:57;96215.31;;;1.32;90.72
47366;BME280;33105;47.964;7.982;2023-04-21T02:25:58;96210.97;;;1.31;91.03
47366;BME280;33105;47.964;7.982;2023-04-21T02:28:59;96203.59;;;1.20;91.46
47366;BME280;33105;47.964;7.982;2023-04-21T02:32:01;96203.81;;;1.19;91.86
47366;BME280;33105;47.964;7.982;2023-04-21T02:35:02;96199.19;;;1.26;91.49
47366;BME280;33105;47.964;7.982;2023-04-21T02:38:05;96197.78;;;1.23;90.74
47366;BME280;33105;47.964;7.982;2023-04-21T02:41:09;96206.84;;;1.29;90.31
47366;BME280;33105;47.964;7.982;2023-04-21T02:44:10;96201.66;;;1.27;91.32
47366;BME280;33105;47.964;7.982;2023-04-21T02:47:14;96195.91;;;1.24;91.64
47366;BME280;33105;47.964;7.982;2023-04-21T02:50:16;96191.59;;;1.23;91.48
47366;BME280;33105;47.964;7.982;2023-04-21T02:53:20;96195.38;;;1.40;92.14
47366;BME280;33105;47.964;7.982;2023-04-21T02:56:22;96195.66;;;1.32;92.72
47366;BME280;33105;47.964;7.982;2023-04-21T02:59:23;96195.88;;;1.30;92.28
47366;BME280;33105;47.964;7.982;2023-04-21T03:02:24;96200.47;;;1.23;92.19
47366;BME280;33105;47.964;7.982;2023-04-21T03:05:26;96197.63;;;1.18;92.55
47366;BME280;33105;47.964;7.982;2023-04-21T03:08:27;96189.88;;;1.28;92.82
47366;BME280;33105;47.964;7.982;2023-04-21T03:11:29;96198.38;;;1.25;92.64
47366;BME280;33105;47.964;7.982;2023-04-21T03:14:30;96180.97;;;1.28;92.49
47366;BME280;33105;47.964;7.982;2023-04-21T03:17:32;96184.84;;;1.39;91.82
47366;BME280;33105;47.964;7.982;2023-04-21T03:20:33;96181.09;;;1.40;91.45
47366;BME280;33105;47.964;7.982;2023-04-21T03:23:34;96184.88;;;1.32;91.69
47366;BME280;33105;47.964;7.982;2023-04-21T03:26:38;96178.41;;;1.40;90.99
47366;BME280;33105;47.964;7.982;2023-04-21T03:29:39;96192.16;;;1.25;91.59
47366;BME280;33105;47.964;7.982;2023-04-21T03:32:40;96177.84;;;1.31;91.62
47366;BME280;33105;47.964;7.982;2023-04-21T03:35:42;96174.91;;;1.39;91.20
47366;BME280;33105;47.964;7.982;2023-04-21T03:38:43;96186.78;;;1.25;90.87
47366;BME280;33105;47.964;7.982;2023-04-21T03:41:44;96193.31;;;1.42;90.92
47366;BME280;33105;47.964;7.982;2023-04-21T03:44:45;96200.03;;;1.26;90.21
47366;BME280;33105;47.964;7.982;2023-04-21T03:47:47;96196.47;;;1.32;90.25
47366;BME280;33105;47.964;7.982;2023-04-21T03:50:48;96194.75;;;1.13;90.11
47366;BME280;33105;47.964;7.982;2023-04-21T03:53:49;96194.81;;;1.00;91.46
47366;BME280;33105;47.964;7.982;2023-04-21T03:56:50;96196.03;;;1.04;91.84
47366;BME280;33105;47.964;7.982;2023-04-21T03:59:52;96198.38;;;1.25;90.32
47366;BME280;33105;47.964;7.982;2023-04-21T04:02:53;96196.81;;;1.11;90.27
47366;BME280;33105;47.964;7.982;2023-04-21T04:05:54;96201.41;;;1.04;90.57
47366;BME280;33105;47.964;7.982;2023-04-21T04:08:56;96196.53;;;0.94;91.66
47366;BME280;33105;47.964;7.982;2023-04-21T04:11:57;96202.63;;;1.08;92.67
47366;BME280;33105;47.964;7.982;2023-04-21T04:14:58;96195.13;;;1.17;91.29
47366;BME280;33105;47.964;7.982;2023-04-21T04:17:59;96196.03;;;1.04;91.05
47366;BME280;33105;47.964;7.982;2023-04-21T04:21:05;96197.94;;;1.28;91.26
47366;BME280;33105;47.964;7.982;2023-04-21T04:24:07;96201.38;;;1.11;91.11
47366;BME280;33105;47.964;7.982;2023-04-21T04:27:09;96202.19;;;1.11;91.16
47366;BME280;33105;47.964;7.982;2023-04-21T04:30:13;96199.31;;;1.06;91.90
47366;BME280;33105;47.964;7.982;2023-04-21T04:33:15;96200.66;;;0.97;91.45
47366;BME280;33105;47.964;7.982;2023-04-21T04:36:16;96199.59;;;0.98;91.71
47366;BME280;33105;47.964;7.982;2023-04-21T04:39:17;96196.53;;;0.88;92.23
47366;BME280;33105;47.964;7.982;2023-04-21T04:42:18;96195.94;;;0.86;92.11
47366;BME280;33105;47.964;7.982;2023-04-21T04:45:20;96205.69;;;0.80;93.19
47366;BME280;33105;47.964;7.982;2023-04-21T04:48:22;96204.59;;;0.94;91.98
47366;BME280;33105;47.964;7.982;2023-04-21T04:51:24;96204.91;;;1.05;92.00
47366;BME280;33105;47.964;7.982;2023-04-21T04:54:26;96200.47;;;0.92;92.35
47366;BME280;33105;47.964;7.982;2023-04-21T04:57:29;96206.03;;;0.97;92.95
47366;BME280;33105;47.964;7.982;2023-04-21T05:00:31;96205.13;;;1.03;91.31
47366;BME280;33105;47.964;7.982;2023-04-21T05:03:32;96210.56;;;0.96;93.59
47366;BME280;33105;47.964;7.982;2023-04-21T05:06:33;96212.16;;;1.04;93.34
47366;BME280;33105;47.964;7.982;2023-04-21T05:09:34;96212.97;;;1.11;91.95
47366;BME280;33105;47.964;7.982;2023-04-21T05:12:35;96221.66;;;1.13;92.11
47366;BME280;33105;47.964;7.982;2023-04-21T05:15:37;96210.28;;;1.11;93.67
47366;BME280;33105;47.964;7.982;2023-04-21T05:18:38;96222.69;;;1.12;92.99
47366;BME280;33105;47.964;7.982;2023-04-21T05:21:39;96212.53;;;1.14;92.76
47366;BME280;33105;47.964;7.982;2023-04-21T05:24:40;96215.84;;;1.16;93.34
47366;BME280;33105;47.964;7.982;2023-04-21T05:27:42;96223.16;;;1.34;92.82
47366;BME280;33105;47.964;7.982;2023-04-21T05:30:44;96220.97;;;1.49;93.56
47366;BME280;33105;47.964;7.982;2023-04-21T05:33:45;96224.66;;;1.55;92.10
47366;BME280;33105;47.964;7.982;2023-04-21T05:36:46;96216.28;;;1.69;90.95
47366;BME280;33105;47.964;7.982;2023-04-21T05:39:48;96223.53;;;1.94;90.95
47366;BME280;33105;47.964;7.982;2023-04-21T05:42:50;96225.06;;;2.08;89.90
47366;BME280;33105;47.964;7.982;2023-04-21T05:45:51;96224.25;;;2.26;90.11
47366;BME280;33105;47.964;7.982;2023-04-21T05:48:52;96219.34;;;2.41;90.41
47366;BME280;33105;47.964;7.982;2023-04-21T05:51:53;96220.25;;;2.71;88.74
47366;BME280;33105;47.964;7.982;2023-04-21T05:54:55;96214.59;;;2.91;89.09
47366;BME280;33105;47.964;7.982;2023-04-21T05:57:56;96210.34;;;3.14;88.86
47366;BME280;33105;47.964;7.982;2023-04-21T06:00:57;96208.41;;;3.32;88.29
47366;BME280;33105;47.964;7.982;2023-04-21T06:03:58;96205.22;;;3.65;86.80
47366;BME280;33105;47.964;7.982;2023-04-21T06:07:06;96211.91;;;3.74;85.06
47366;BME280;33105;47.964;7.982;2023-04-21T06:10:10;96207.63;;;4.08;83.07
47366;BME280;33105;47.964;7.982;2023-04-21T06:13:12;96201.88;;;4.17;80.48
47366;BME280;33105;47.964;7.982;2023-04-21T06:16:13;96199.03;;;4.35;79.67
47366;BME280;33105;47.964;7.982;2023-04-21T06:19:15;96196.88;;;4.49;78.42
47366;BME280;33105;47.964;7.982;2023-04-21T06:22:16;96201.00;;;4.51;79.90
47366;BME280;33105;47.964;7.982;2023-04-21T06:25:17;96196.38;;;4.75;78.27
47366;BME280;33105;47.964;7.982;2023-04-21T06:28:18;96195.78;;;4.85;78.99
47366;BME280;33105;47.964;7.982;2023-04-21T06:31:19;96189.31;;;4.86;78.82
47366;BME280;33105;47.964;7.982;2023-04-21T06:34:21;96179.06;;;4.76;80.40
47366;BME280;33105;47.964;7.982;2023-04-21T06:37:22;96183.72;;;4.52;81.31
47366;BME280;33105;47.964;7.982;2023-04-21T06:40:23;96184.78;;;4.63;81.67
47366;BME280;33105;47.964;7.982;2023-04-21T06:43:24;96176.03;;;4.72;81.25
47366;BME280;33105;47.964;7.982;2023-04-21T06:46:26;96175.81;;;5.02;81.06
47366;BME280;33105;47.964;7.982;2023-04-21T06:49:33;96170.59;;;5.12;81.92
47366;BME280;33105;47.964;7.982;2023-04-21T06:52:34;96170.94;;;4.88;80.67
47366;BME280;33105;47.964;7.982;2023-04-21T06:55:36;96176.22;;;4.94;82.03
47366;BME280;33105;47.964;7.982;2023-04-21T06:58:37;96169.91;;;5.34;80.49
47366;BME280;33105;47.964;7.982;2023-04-21T07:01:38;96171.56;;;5.35;79.42
47366;BME280;33105;47.964;7.982;2023-04-21T07:04:39;96166.19;;;5.23;80.84
47366;BME280;33105;47.964;7.982;2023-04-21T07:07:41;96168.91;;;5.23;79.38
47366;BME280;33105;47.964;7.982;2023-04-21T07:10:42;96167.22;;;5.34;79.86
47366;BME280;33105;47.964;7.982;2023-04-21T07:13:43;96171.84;;;5.22;79.39
47366;BME280;33105;47.964;7.982;2023-04-21T07:16:44;96161.41;;;5.59;79.66
47366;BME280;33105;47.964;7.982;2023-04-21T07:19:45;96160.41;;;5.93;79.39
47366;BME280;33105;47.964;7.982;2023-04-21T07:22:46;96160.69;;;5.80;77.93
47366;BME280;33105;47.964;7.982;2023-04-21T07:25:48;96145.66;;;6.06;77.22
47366;BME280;33105;47.964;7.982;2023-04-21T07:28:49;96143.78;;;6.06;78.57
47366;BME280;33105;47.964;7.982;2023-04-21T07:31:52;96139.63;;;6.37;77.70
47366;BME280;33105;47.964;7.982;2023-04-21T07:34:54;96131.72;;;6.36;77.67
47366;BME280;33105;47.964;7.982;2023-04-21T07:37:55;96137.50;;;6.61;77.27
47366;BME280;33105;47.964;7.982;2023-04-21T07:40:58;96137.25;;;6.63;76.55
47366;BME280;33105;47.964;7.982;2023-04-21T07:44:00;96138.25;;;6.78;78.54
47366;BME280;33105;47.964;7.982;2023-04-21T07:47:01;96129.63;;;7.67;74.72
47366;BME280;33105;47.964;7.982;2023-04-21T07:50:02;96136.44;;;7.11;73.80
47366;BME280;33105;47.964;7.982;2023-04-21T07:53:04;96119.22;;;7.27;75.95
47366;BME280;33105;47.964;7.982;2023-04-21T07:56:05;96133.19;;;7.36;77.08
47366;BME280;33105;47.964;7.982;2023-04-21T07:59:07;96129.25;;;7.54;75.76
47366;BME280;33105;47.964;7.982;2023-04-21T08:02:08;96124.13;;;7.89;73.69
47366;BME280;33105;47.964;7.982;2023-04-21T08:05:09;96119.78;;;7.93;74.30
47366;BME280;33105;47.964;7.982;2023-04-21T08:08:11;96117.22;;;7.76;72.02
47366;BME280;33105;47.964;7.982;2023-04-21T08:11:12;96116.72;;;7.79;72.75
47366;BME280;33105;47.964;7.982;2023-04-21T08:14:13;96100.75;;;7.93;71.68
47366;BME280;33105;47.964;7.982;2023-04-21T08:17:14;96097.56;;;8.38;74.57
47366;BME280;33105;47.964;7.982;2023-04-21T08:20:16;96088.22;;;8.29;72.65
47366;BME280;33105;47.964;7.982;2023-04-21T08:23:17;96096.72;;;8.43;71.96
47366;BME280;33105;47.964;7.982;2023-04-21T08:26:21;96089.53;;;8.74;71.07
47366;BME280;33105;47.964;7.982;2023-04-21T08:29:22;96087.75;;;9.20;71.79
47366;BME280;33105;47.964;7.982;2023-04-21T08:32:23;96082.25;;;8.95;70.65
47366;BME280;33105;47.964;7.982;2023-04-21T08:35:26;96084.41;;;8.88;69.97
47366;BME280;33105;47.964;7.982;2023-04-21T08:38:27;96083.88;;;8.85;68.87
47366;BME280;33105;47.964;7.982;2023-04-21T08:41:28;96074.34;;;8.88;70.64
47366;BME280;33105;47.964;7.982;2023-04-21T08:44:29;96083.16;;;8.48;69.84
47366;BME280;33105;47.964;7.982;2023-04-21T08:47:31;96076.97;;;8.68;71.70
47366;BME280;33105;47.964;7.982;2023-04-21T08:50:34;96069.31;;;8.55;71.38
47366;BME280;33105;47.964;7.982;2023-04-21T08:53:36;96065.25;;;8.67;70.97
47366;BME280;33105;47.964;7.982;2023-04-21T08:56:38;96059.91;;;8.93;74.01
47366;BME280;33105;47.964;7.982;2023-04-21T08:59:40;96058.81;;;8.94;71.20
47366;BME280;33105;47.964;7.982;2023-04-21T09:03:00;96053.16;;;9.15;70.59
47366;BME280;33105;47.964;7.982;2023-04-21T09:06:04;96057.81;;;9.35;71.10
47366;BME280;33105;47.964;7.982;2023-04-21T09:09:06;96057.81;;;9.45;72.21
47366;BME280;33105;47.964;7.982;2023-04-21T09:12:07;96064.63;;;9.73;68.45
47366;BME280;33105;47.964;7.982;2023-04-21T09:15:09;96065.44;;;9.99;70.46
47366;BME280;33105;47.964;7.982;2023-04-21T09:18:14;96061.56;;;10.15;68.97
47366;BME280;33105;47.964;7.982;2023-04-21T09:21:17;96055.88;;;9.92;68.83
47366;BME280;33105;47.964;7.982;2023-04-21T09:24:19;96052.88;;;9.98;69.22
47366;BME280;33105;47.964;7.982;2023-04-21T09:27:20;96047.13;;;10.10;69.33
47366;BME280;33105;47.964;7.982;2023-04-21T09:30:21;96065.38;;;10.40;67.86
47366;BME280;33105;47.964;7.982;2023-04-21T09:33:22;96069.47;;;10.42;67.33
47366;BME280;33105;47.964;7.982;2023-04-21T09:36:25;96077.41;;;10.34;66.76
47366;BME280;33105;47.964;7.982;2023-04-21T09:39:28;96082.28;;;10.52;67.74
47366;BME280;33105;47.964;7.982;2023-04-21T09:42:31;96085.97;;;10.86;67.64
47366;BME280;33105;47.964;7.982;2023-04-21T09:45:33;96076.69;;;10.82;66.67
47366;BME280;33105;47.964;7.982;2023-04-21T09:48:35;96102.59;;;10.95;68.75
47366;BME280;33105;47.964;7.982;2023-04-21T09:51:37;96086.19;;;10.95;66.00
47366;BME280;33105;47.964;7.982;2023-04-21T09:54:44;96092.75;;;10.99;66.24
47366;BME280;33105;47.964;7.982;2023-04-21T09:57:50;96085.34;;;11.05;66.24
47366;BME280;33105;47.964;7.982;2023-04-21T10:00:52;96085.72;;;11.32;65.92
47366;BME280;33105;47.964;7.982;2023-04-21T10:03:56;96090.19;;;11.62;65.52
47366;BME280;33105;47.964;7.982;2023-04-21T10:06:59;96080.50;;;11.80;64.10
47366;BME280;33105;47.964;7.982;2023-04-21T10:10:00;96081.16;;;11.96;66.04
47366;BME280;33105;47.964;7.982;2023-04-21T10:13:03;96077.19;;;11.83;63.83
47366;BME280;33105;47.964;7.982;2023-04-21T10:16:08;96070.66;;;12.37;64.31
47366;BME280;33105;47.964;7.982;2023-04-21T10:19:23;96067.50;;;12.24;63.02
47366;BME280;33105;47.964;7.982;2023-04-21T10:22:30;96060.88;;;12.31;64.66
47366;BME280;33105;47.964;7.982;2023-04-21T10:25:31;96062.09;;;12.43;60.95
47366;BME280;33105;47.964;7.982;2023-04-21T10:28:44;96067.31;;;12.40;63.25
47366;BME280;33105;47.964;7.982;2023-04-21T10:31:53;96071.66;;;12.46;62.23
47366;BME280;33105;47.964;7.982;2023-04-21T10:34:55;96062.19;;;12.09;62.35
47366;BME280;33105;47.964;7.982;2023-04-21T10:37:57;96061.31;;;12.38;62.74
47366;BME280;33105;47.964;7.982;2023-04-21T10:41:27;96050.84;;;12.69;61.92
47366;BME280;33105;47.964;7.982;2023-04-21T10:44:28;96045.19;;;12.60;61.75
47366;BME280;33105;47.964;7.982;2023-04-21T10:50:41;96043.53;;;12.83;62.27
47366;BME280;33105;47.964;7.982;2023-04-21T10:53:44;96043.78;;;12.86;60.31
47366;BME280;33105;47.964;7.982;2023-04-21T10:56:46;96035.00;;;13.46;61.46
47366;BME280;33105;47.964;7.982;2023-04-21T10:59:48;96042.22;;;13.60;59.61
47366;BME280;33105;47.964;7.982;2023-04-21T11:02:57;96037.69;;;13.51;60.69
47366;BME280;33105;47.964;7.982;2023-04-21T11:05:59;96042.72;;;13.44;59.50
47366;BME280;33105;47.964;7.982;2023-04-21T11:09:00;96049.97;;;13.16;60.33
47366;BME280;33105;47.964;7.982;2023-04-21T11:12:14;96045.13;;;13.08;60.30
47366;BME280;33105;47.964;7.982;2023-04-21T11:15:17;96039.53;;;13.37;62.98
47366;BME280;33105;47.964;7.982;2023-04-21T11:18:18;96044.31;;;13.63;60.45
47366;BME280;33105;47.964;7.982;2023-04-21T11:21:20;96052.28;;;13.46;62.03
47366;BME280;33105;47.964;7.982;2023-04-21T11:24:22;96054.56;;;13.20;61.51
47366;BME280;33105;47.964;7.982;2023-04-21T11:27:27;96052.16;;;13.56;59.67
47366;BME280;33105;47.964;7.982;2023-04-21T11:30:30;96056.28;;;13.73;58.71
47366;BME280;33105;47.964;7.982;2023-04-21T11:33:37;96044.84;;;13.66;61.29
47366;BME280;33105;47.964;7.982;2023-04-21T11:36:41;96051.25;;;13.93;61.14
47366;BME280;33105;47.964;7.982;2023-04-21T11:39:43;96054.63;;;13.72;61.98
47366;BME280;33105;47.964;7.982;2023-04-21T11:42:44;96055.59;;;13.81;62.03
47366;BME280;33105;47.964;7.982;2023-04-21T11:45:49;96041.69;;;13.58;60.88
47366;BME280;33105;47.964;7.982;2023-04-21T11:51:59;96041.03;;;13.29;61.45
47366;BME280;33105;47.964;7.982;2023-04-21T11:58:03;96042.19;;;14.39;63.29
47366;BME280;33105;47.964;7.982;2023-04-21T12:01:07;96039.19;;;14.68;57.28
47366;BME280;33105;47.964;7.982;2023-04-21T12:04:16;96023.72;;;14.72;58.47
47366;BME280;33105;47.964;7.982;2023-04-21T12:07:21;96018.03;;;14.55;56.39
47366;BME280;33105;47.964;7.982;2023-04-21T12:10:22;96031.25;;;14.53;59.26
47366;BME280;33105;47.964;7.982;2023-04-21T12:13:41;96024.72;;;14.35;57.17
47366;BME280;33105;47.964;7.982;2023-04-21T12:16:42;96042.34;;;14.15;58.15
47366;BME280;33105;47.964;7.982;2023-04-21T12:19:43;96039.56;;;14.34;60.08
47366;BME280;33105;47.964;7.982;2023-04-21T12:22:45;96032.41;;;14.19;58.15
47366;BME280;33105;47.964;7.982;2023-04-21T12:25:47;96038.50;;;14.76;59.29
47366;BME280;33105;47.964;7.982;2023-04-21T12:28:49;96044.28;;;14.61;58.04
47366;BME280;33105;47.964;7.982;2023-04-21T12:31:51;96059.47;;;14.58;57.73
47366;BME280;33105;47.964;7.982;2023-04-21T12:34:52;96059.75;;;14.43;57.23
47366;BME280;33105;47.964;7.982;2023-04-21T12:37:53;96063.34;;;14.25;59.74
47366;BME280;33105;47.964;7.982;2023-04-21T12:40:55;96071.53;;;14.44;59.42
47366;BME280;33105;47.964;7.982;2023-04-21T12:43:56;96068.59;;;14.08;59.28
47366;BME280;33105;47.964;7.982;2023-04-21T12:46:57;96083.19;;;14.36;60.77
47366;BME280;33105;47.964;7.982;2023-04-21T12:49:58;96082.84;;;14.10;60.29
47366;BME280;33105;47.964;7.982;2023-04-21T12:53:00;96078.78;;;14.07;61.76
47366;BME280;33105;47.964;7.982;2023-04-21T12:56:02;96086.00;;;14.17;60.88
47366;BME280;33105;47.964;7.982;2023-04-21T12:59:03;96100.22;;;14.05;60.66
47366;BME280;33105;47.964;7.982;2023-04-21T13:02:04;96089.47;;;13.90;59.93
47366;BME280;33105;47.964;7.982;2023-04-21T13:05:06;96079.59;;;13.89;61.30
47366;BME280;33105;47.964;7.982;2023-04-21T13:08:10;96092.25;;;13.71;60.26
47366;BME280;33105;47.964;7.982;2023-04-21T13:11:12;96078.09;;;13.83;60.96
47366;BME280;33105;47.964;7.982;2023-04-21T13:14:14;96084.28;;;14.07;60.04
47366;BME280;33105;47.964;7.982;2023-04-21T13:17:16;96086.97;;;14.26;60.01
47366;BME280;33105;47.964;7.982;2023-04-21T13:20:17;96093.78;;;14.28;60.11
47366;BME280;33105;47.964;7.982;2023-04-21T13:23:19;96087.63;;;14.18;59.93
47366;BME280;33105;47.964;7.982;2023-04-21T13:26:20;96083.25;;;14.03;61.06
47366;BME280;33105;47.964;7.982;2023-04-21T13:29:22;96081.13;;;14.14;60.92
47366;BME280;33105;47.964;7.982;2023-04-21T13:32:23;96085.28;;;14.11;60.71
47366;BME280;33105;47.964;7.982;2023-04-21T13:35:25;96080.00;;;14.15;60.53
47366;BME280;33105;47.964;7.982;2023-04-21T13:38:26;96076.19;;;14.29;59.71
47366;BME280;33105;47.964;7.982;2023-04-21T13:41:28;96073.50;;;14.71;57.30
47366;BME280;33105;47.964;7.982;2023-04-21T13:44:29;96074.66;;;14.37;59.83
47366;BME280;33105;47.964;7.982;2023-04-21T13:47:32;96084.00;;;14.55;58.30
47366;BME280;33105;47.964;7.982;2023-04-21T13:50:33;96072.88;;;14.60;60.80
47366;BME280;33105;47.964;7.982;2023-04-21T13:53:34;96072.59;;;14.75;59.73
47366;BME280;33105;47.964;7.982;2023-04-21T13:56:36;96068.81;;;14.71;57.83
47366;BME280;33105;47.964;7.982;2023-04-21T13:59:37;96065.38;;;14.79;57.60
47366;BME280;33105;47.964;7.982;2023-04-21T14:02:38;96064.88;;;14.77;58.95
47366;BME280;33105;47.964;7.982;2023-04-21T14:05:41;96064.66;;;14.74;59.19
47366;BME280;33105;47.964;7.982;2023-04-21T14:08:42;96054.06;;;14.67;58.50
47366;BME280;33105;47.964;7.982;2023-04-21T14:11:44;96059.94;;;14.47;57.65
47366;BME280;33105;47.964;7.982;2023-04-21T14:14:45;96064.25;;;14.53;57.73
47366;BME280;33105;47.964;7.982;2023-04-21T14:17:46;96060.38;;;14.68;56.46
47366;BME280;33105;47.964;7.982;2023-04-21T14:20:48;96056.38;;;14.60;59.37
47366;BME280;33105;47.964;7.982;2023-04-21T14:23:49;96059.56;;;14.53;58.71
47366;BME280;33105;47.964;7.982;2023-04-21T14:26:50;96054.97;;;14.62;57.92
47366;BME280;33105;47.964;7.982;2023-04-21T14:29:52;96050.00;;;14.51;59.14
47366;BME280;33105;47.964;7.982;2023-04-21T14:32:53;96045.16;;;14.29;58.57
47366;BME280;33105;47.964;7.982;2023-04-21T14:35:55;96049.63;;;14.39;60.29
47366;BME280;33105;47.964;7.982;2023-04-21T14:38:56;96058.81;;;14.34;59.79
47366;BME280;33105;47.964;7.982;2023-04-21T14:41:57;96059.69;;;14.29;59.36
47366;BME280;33105;47.964;7.982;2023-04-21T14:44:58;96051.97;;;14.32;58.58
47366;BME280;33105;47.964;7.982;2023-04-21T14:47:59;96061.78;;;13.86;62.04
47366;BME280;33105;47.964;7.982;2023-04-21T14:51:01;96055.13;;;13.60;62.87
47366;BME280;33105;47.964;7.982;2023-04-21T14:54:02;96057.22;;;13.07;61.58
47366;BME280;33105;47.964;7.982;2023-04-21T14:57:03;96054.31;;;12.98;63.52
47366;BME280;33105;47.964;7.982;2023-04-21T15:00:05;96062.53;;;12.98;64.05
47366;BME280;33105;47.964;7.982;2023-04-21T15:03:06;96058.16;;;12.97;64.04
47366;BME280;33105;47.964;7.982;2023-04-21T15:06:07;96054.00;;;13.00;63.75
47366;BME280;33105;47.964;7.982;2023-04-21T15:09:09;96051.22;;;13.05;63.78
47366;BME280;33105;47.964;7.982;2023-04-21T15:12:11;96048.28;;;13.20;64.49
47366;BME280;33105;47.964;7.982;2023-04-21T15:15:13;96034.28;;;12.98;63.99
47366;BME280;33105;47.964;7.982;2023-04-21T15:18:14;96046.69;;;13.14;65.54
47366;BME280;33105;47.964;7.982;2023-04-21T15:21:15;96042.50;;;13.21;65.08
47366;BME280;33105;47.964;7.982;2023-04-21T15:24:18;96049.09;;;13.20;64.77
47366;BME280;33105;47.964;7.982;2023-04-21T15:27:19;96043.06;;;13.75;61.65
47366;BME280;33105;47.964;7.982;2023-04-21T15:30:21;96042.50;;;13.40;63.03
47366;BME280;33105;47.964;7.982;2023-04-21T15:33:23;96042.78;;;13.20;64.77
47366;BME280;33105;47.964;7.982;2023-04-21T15:36:24;96038.28;;;13.29;65.87
47366;BME280;33105;47.964;7.982;2023-04-21T15:39:26;96036.81;;;13.13;65.80
47366;BME280;33105;47.964;7.982;2023-04-21T15:42:27;96032.41;;;13.54;65.71
47366;BME280;33105;47.964;7.982;2023-04-21T15:45:29;96038.75;;;13.69;66.05
47366;BME280;33105;47.964;7.982;2023-04-21T15:48:31;96029.59;;;13.92;64.49
47366;BME280;33105;47.964;7.982;2023-04-21T15:51:33;96035.56;;;13.61;65.31
47366;BME280;33105;47.964;7.982;2023-04-21T15:54:35;96028.78;;;13.59;67.78
47366;BME280;33105;47.964;7.982;2023-04-21T15:57:37;96031.47;;;13.78;67.15
47366;BME280;33105;47.964;7.982;2023-04-21T16:00:39;96034.31;;;13.73;65.88
47366;BME280;33105;47.964;7.982;2023-04-21T16:03:45;96029.84;;;13.77;67.21
47366;BME280;33105;47.964;7.982;2023-04-21T16:06:47;96028.81;;;13.73;63.68
47366;BME280;33105;47.964;7.982;2023-04-21T16:09:51;96032.69;;;13.72;63.91
47366;BME280;33105;47.964;7.982;2023-04-21T16:12:52;96024.75;;;13.70;64.21
47366;BME280;33105;47.964;7.982;2023-04-21T16:15:55;96026.22;;;13.81;66.65
47366;BME280;33105;47.964;7.982;2023-04-21T16:18:57;96020.22;;;13.79;65.64
47366;BME280;33105;47.964;7.982;2023-04-21T16:22:00;96014.50;;;13.76;65.12